Time;durP1;ratioP1;P1;durP2;ratioP2;P2;SDS_P1;SDS_P2;PMS_P1;PMS_P2;Temp;Humidity;BMP_temperature;BMP_pressure;BME280_temperature;BME280_humidity;BME280_pressure;Samples;Min_cycle;Max_cycle;Signal;HPM_P1;HPM_P2
2023/05/02 00:02:21;;;;;;;0.40;0.40;;;18.40;60.80;;;18.61;43.84;94754.72;5075323;28;20623;-60
2023/05/02 00:04:48;;;;;;;0.50;0.50;;;18.40;60.90;;;18.56;43.94;94750.94;5074039;28;20206;-60
2023/05/02 00:07:15;;;;;;;0.50;0.50;;;18.40;61.00;;;18.59;44.29;94759.47;5074408;28;20197;-57
2023/05/02 00:09:42;;;;;;;0.40;0.40;;;18.40;61.00;;;18.59;44.06;94762.13;5073970;28;20233;-60
2023/05/02 00:12:09;;;;;;;0.50;0.50;;;18.40;61.00;;;18.56;44.17;94766.09;5074905;28;20190;-60
2023/05/02 00:14:36;;;;;;;0.50;0.50;;;18.40;61.10;;;18.55;44.31;94772.44;5073965;28;20199;-60
2023/05/02 00:17:04;;;;;;;0.50;0.50;;;18.40;61.20;;;18.54;43.96;94768.19;5073830;28;20222;-60
2023/05/02 00:19:31;;;;;;;0.50;0.50;;;18.40;61.10;;;18.52;43.98;94775.59;5074797;28;20255;-60
2023/05/02 00:21:58;;;;;;;0.50;0.50;;;18.30;61.10;;;18.51;44.32;94779.31;5074855;28;20227;-60
2023/05/02 00:24:25;;;;;;;0.47;0.47;;;18.30;61.20;;;18.47;43.99;94771.03;5075130;28;20193;-58
2023/05/02 00:26:53;;;;;;;0.43;0.43;;;18.30;61.10;;;18.48;44.32;94777.94;5073835;28;20582;-60
2023/05/02 00:29:20;;;;;;;0.43;0.43;;;18.30;61.20;;;18.47;44.22;94781.66;5073671;28;20629;-58
2023/05/02 00:31:47;;;;;;;0.47;0.47;;;18.30;61.20;;;18.47;44.51;94781.66;5073792;28;20199;-60
2023/05/02 00:34:15;;;;;;;0.50;0.50;;;18.30;61.30;;;18.48;44.51;94785.09;5073758;28;20218;-60
2023/05/02 00:36:42;;;;;;;0.63;0.63;;;18.30;61.30;;;18.47;44.33;94786.13;5057128;28;20242;-59
2023/05/02 00:39:10;;;;;;;0.70;0.70;;;18.30;61.30;;;18.45;44.58;94782.94;5073563;28;20671;-61
2023/05/02 00:41:37;;;;;;;0.50;0.50;;;18.30;61.40;;;18.45;44.11;94789.03;5075477;28;20530;-60
2023/05/02 00:44:04;;;;;;;0.47;0.47;;;18.20;61.40;;;18.45;44.53;94788.25;5074880;28;20273;-59
2023/05/02 00:46:31;;;;;;;0.43;0.43;;;18.30;61.50;;;18.45;44.42;94789.03;5090422;28;20671;-59
2023/05/02 00:49:00;;;;;;;0.50;0.50;;;18.20;61.40;;;18.44;44.66;94789.28;5090322;28;20557;-58
2023/05/02 00:51:27;;;;;;;0.60;0.60;;;18.30;61.50;;;18.44;44.67;94792.75;5073692;28;20648;-60
2023/05/02 00:53:56;;;;;;;0.40;0.40;;;18.20;61.50;;;18.44;44.36;94794.59;5073926;28;20190;-60
2023/05/02 00:56:23;;;;;;;0.40;0.40;;;18.20;61.60;;;18.43;44.21;94798.31;5078863;28;20229;-59
2023/05/02 00:58:50;;;;;;;0.50;0.50;;;18.20;61.70;;;18.42;44.46;94799.34;5065535;28;20210;-59
2023/05/02 01:02:08;;;;;;;0.50;0.50;;;18.20;61.70;;;18.38;44.28;94804.34;5058334;28;20630;-60
2023/05/02 01:05:15;;;;;;;0.50;0.50;;;18.20;61.80;;;18.36;44.71;94801.94;5058900;28;20249;-60
2023/05/02 01:08:01;;;;;;;0.47;0.47;;;18.10;61.90;;;18.32;44.89;94808.78;5058200;28;20218;-60
2023/05/02 01:10:51;;;;;;;0.57;0.57;;;18.20;62.00;;;18.30;44.78;94812.75;5057825;28;20195;-59
2023/05/02 01:13:32;;;;;;;0.43;0.43;;;18.10;62.00;;;18.30;44.47;94810.09;5057505;28;20207;-59
2023/05/02 01:16:02;;;;;;;0.60;0.60;;;18.10;61.90;;;18.23;45.02;94803.06;5058277;28;20203;-60
2023/05/02 01:18:38;;;;;;;0.50;0.50;;;18.10;62.00;;;18.29;44.92;94811.13;5073611;28;20218;-59
2023/05/02 01:21:10;;;;;;;0.40;0.40;;;18.10;61.90;;;18.28;45.20;94805.00;5057057;28;20195;-60
2023/05/02 01:24:06;;;;;;;0.60;0.60;;;18.00;61.90;;;18.27;44.69;94811.34;5057008;28;20229;-58
2023/05/02 01:27:19;;;;;;;0.40;0.40;;;18.00;61.90;;;18.22;44.75;94808.63;5056889;28;20622;-59
2023/05/02 01:29:49;;;;;;;0.40;0.40;;;18.10;62.00;;;18.21;45.22;94807.84;5057077;28;20203;-58
2023/05/02 01:32:20;;;;;;;0.40;0.40;;;18.10;61.90;;;18.23;45.26;94808.38;5056817;28;20200;-60
2023/05/02 01:34:49;;;;;;;0.50;0.50;;;18.00;61.90;;;18.21;45.42;94807.84;5056708;28;20661;-59
2023/05/02 01:37:18;;;;;;;0.50;0.50;;;18.00;61.90;;;18.15;45.06;94800.00;5073223;28;20215;-57
2023/05/02 01:39:47;;;;;;;0.50;0.50;;;18.00;61.90;;;18.22;45.48;94813.94;5040449;28;20199;-58
2023/05/02 01:42:15;;;;;;;0.47;0.47;;;18.00;61.90;;;18.21;44.97;94823.75;5056661;28;20199;-59
2023/05/02 01:44:45;;;;;;;0.50;0.50;;;18.00;62.80;;;18.20;45.30;94823.97;5056553;28;20196;-60
2023/05/02 01:47:13;;;;;;;0.50;0.50;;;18.00;61.90;;;18.21;45.30;94833.56;5056844;28;20230;-60
2023/05/02 01:49:42;;;;;;;0.50;0.50;;;17.90;61.80;;;18.19;45.74;94823.19;5057730;28;20199;-61
2023/05/02 01:52:12;;;;;;;0.50;0.50;;;17.90;61.80;;;18.20;45.55;94826.63;5056490;28;20286;-58
2023/05/02 01:54:40;;;;;;;0.40;0.40;;;17.90;61.80;;;18.20;45.68;94826.63;5073244;28;20253;-60
2023/05/02 01:57:09;;;;;;;0.40;0.40;;;18.00;61.90;;;18.19;45.67;94838.31;5057182;28;20315;-61
2023/05/02 01:59:38;;;;;;;0.50;0.50;;;18.00;61.90;;;18.14;45.81;94833.72;5056315;28;20203;-60
2023/05/02 02:02:07;;;;;;;0.40;0.40;;;17.90;61.90;;;18.15;45.83;94838.00;5056583;28;20299;-58
2023/05/02 02:04:37;;;;;;;0.55;0.55;;;18.00;61.90;;;18.14;45.24;94836.38;5056141;28;20635;-60
2023/05/02 02:07:12;;;;;;;0.60;0.60;;;18.00;61.90;;;18.15;45.31;94842.50;5055988;28;20294;-59
2023/05/02 02:09:40;;;;;;;0.50;0.50;;;18.00;62.20;;;18.15;45.43;94839.84;5055991;28;20191;-60
2023/05/02 02:12:27;;;;;;;0.40;0.40;;;17.90;61.80;;;18.13;45.46;94840.09;5039827;28;20199;-60
2023/05/02 02:15:26;;;;;;;0.50;0.50;;;17.90;62.20;;;18.12;45.52;94837.69;5056412;28;20528;-58
2023/05/02 02:18:11;;;;;;;0.40;0.40;;;17.90;62.00;;;18.11;45.77;94833.41;5057115;28;20200;-59
2023/05/02 02:20:42;;;;;;;0.60;0.60;;;17.90;62.40;;;18.07;46.02;94833.88;5056989;28;20241;-60
2023/05/02 02:23:11;;;;;;;0.50;0.50;;;17.90;62.30;;;18.10;45.82;94835.25;5039180;28;20765;-59
2023/05/02 02:25:38;;;;;;;0.50;0.50;;;17.90;62.30;;;18.11;46.10;94836.06;5055866;28;20191;-58
2023/05/02 02:28:06;;;;;;;0.60;0.60;;;17.90;62.30;;;18.10;46.21;94835.25;5039489;28;20306;-58
2023/05/02 02:30:33;;;;;;;0.57;0.57;;;17.90;62.40;;;18.11;45.82;94844.03;5056116;28;20210;-60
2023/05/02 02:33:00;;;;;;;0.50;0.50;;;17.90;62.50;;;18.10;45.78;94845.06;5055606;28;20208;-60
2023/05/02 02:35:41;;;;;;;0.50;0.50;;;17.90;62.60;;;18.12;45.90;94845.63;5055564;28;20602;-60
2023/05/02 02:38:25;;;;;;;0.47;0.47;;;17.90;62.80;;;18.09;46.24;94838.97;5055669;28;20186;-59
2023/05/02 02:41:01;;;;;;;0.50;0.50;;;17.90;62.60;;;18.08;46.20;94848.75;5039226;28;20199;-59
2023/05/02 02:43:56;;;;;;;0.40;0.40;;;17.90;62.60;;;18.07;45.83;94859.63;5056703;28;20262;-58
2023/05/02 02:46:49;;;;;;;0.50;0.50;;;17.90;62.70;;;18.06;45.96;94861.47;5055405;28;20200;-60
2023/05/02 02:49:31;;;;;;;0.50;0.50;;;17.90;62.80;;;18.04;46.34;94855.59;5056209;28;20195;-60
2023/05/02 02:52:10;;;;;;;0.50;0.50;;;17.90;62.80;;;18.04;46.11;94862.75;5056551;28;20569;-60
2023/05/02 02:55:08;;;;;;;0.50;0.50;;;17.80;62.70;;;18.00;46.50;94870.38;5056512;28;20609;-60
2023/05/02 02:58:16;;;;;;;0.50;0.50;;;17.90;62.80;;;17.99;46.06;94860.84;5069577;28;20227;-58
2023/05/02 03:00:45;;;;;;;0.50;0.50;;;17.80;62.80;;;18.01;46.14;94860.59;5038543;28;20253;-60
2023/05/02 03:03:15;;;;;;;0.50;0.50;;;17.80;62.70;;;18.00;46.38;94858.97;5055042;28;20264;-58
2023/05/02 03:05:43;;;;;;;0.50;0.50;;;17.80;62.80;;;18.00;46.74;94866.94;5055019;28;20200;-57
2023/05/02 03:08:11;;;;;;;0.50;0.50;;;17.80;62.80;;;18.01;46.34;94871.19;5054950;28;20217;-59
2023/05/02 03:10:39;;;;;;;0.50;0.50;;;17.80;63.00;;;17.99;46.47;94867.97;5054758;28;20195;-59
2023/05/02 03:13:07;;;;;;;0.50;0.50;;;17.80;63.00;;;17.98;46.42;94866.34;5054882;28;20203;-59
2023/05/02 03:15:52;;;;;;;0.50;0.50;;;17.80;63.00;;;17.96;46.79;94874.56;5055731;28;20623;-60
2023/05/02 03:18:26;;;;;;;0.57;0.57;;;17.80;63.00;;;17.95;46.58;94867.66;5054100;28;20198;-58
2023/05/02 03:20:53;;;;;;;0.50;0.50;;;17.80;63.00;;;17.93;46.83;94873.16;5055904;28;20192;-59
2023/05/02 03:23:21;;;;;;;0.50;0.50;;;17.70;63.00;;;17.93;47.01;94873.16;5055573;28;20231;-60
2023/05/02 03:25:51;;;;;;;0.40;0.40;;;17.80;63.10;;;17.96;46.58;94881.75;5054970;28;20638;-60
2023/05/02 03:28:22;;;;;;;0.50;0.50;;;17.80;63.20;;;17.95;46.51;94888.88;5054582;28;20192;-61
2023/05/02 03:30:51;;;;;;;0.43;0.43;;;17.80;63.20;;;17.96;46.62;94876.44;5054394;28;20217;-60
2023/05/02 03:33:20;;;;;;;0.50;0.50;;;17.70;63.10;;;17.95;47.16;94885.44;5054513;28;20653;-59
2023/05/02 03:35:47;;;;;;;0.50;0.50;;;17.70;63.20;;;17.93;46.65;94882.97;5054407;28;20542;-60
2023/05/02 03:38:14;;;;;;;0.50;0.50;;;17.70;63.30;;;17.96;46.79;94881.75;5055563;28;20277;-60
2023/05/02 03:40:43;;;;;;;0.50;0.50;;;17.70;63.20;;;17.95;46.75;94882.78;5054589;28;20210;-60
2023/05/02 03:43:11;;;;;;;0.50;0.50;;;17.80;63.40;;;17.91;46.86;94877.09;5054328;28;20265;-60
2023/05/02 03:45:39;;;;;;;0.40;0.40;;;17.70;63.30;;;17.95;47.27;94877.47;5054323;28;20196;-60
2023/05/02 03:48:07;;;;;;;0.60;0.60;;;17.70;63.20;;;17.93;46.86;94883.78;5054252;28;20286;-60
2023/05/02 03:50:36;;;;;;;0.47;0.47;;;17.70;63.30;;;17.96;47.23;94885.19;5054091;28;20206;-59
2023/05/02 03:53:03;;;;;;;0.50;0.50;;;17.70;64.30;;;17.98;47.05;94892.91;5054159;28;20199;-60
2023/05/02 03:55:41;;;;;;;0.50;0.50;;;17.70;63.50;;;17.97;47.55;94894.75;5054208;28;20256;-60
2023/05/02 03:58:13;;;;;;;0.50;0.50;;;17.70;63.50;;;17.98;46.99;94898.19;5070234;28;20627;-60
2023/05/02 04:00:41;;;;;;;0.50;0.50;;;17.80;63.50;;;17.98;47.41;94900.84;5053972;28;20217;-59
2023/05/02 04:03:09;;;;;;;0.40;0.40;;;17.80;63.50;;;17.98;47.06;94903.50;5054035;28;20281;-60
2023/05/02 04:05:40;;;;;;;0.60;0.60;;;17.80;63.60;;;17.97;47.46;94910.69;5054073;28;20192;-60
2023/05/02 04:08:09;;;;;;;0.47;0.47;;;17.80;63.50;;;17.98;47.10;94911.47;5053996;28;20641;-60
2023/05/02 04:10:37;;;;;;;0.50;0.50;;;17.80;63.60;;;17.96;47.47;94908.28;5053835;28;20559;-60
2023/05/02 04:13:07;;;;;;;0.40;0.40;;;17.80;64.60;;;17.99;47.40;94916.56;5054461;28;20196;-58
2023/05/02 04:15:37;;;;;;;0.55;0.55;;;17.80;63.80;;;18.00;47.81;94914.69;5054177;28;20619;-60
2023/05/02 04:18:05;;;;;;;0.50;0.50;;;17.80;63.80;;;18.02;47.74;94912.63;5053776;28;20650;-58
2023/05/02 04:20:34;;;;;;;0.50;0.50;;;17.80;63.80;;;18.00;47.67;94923.47;5053722;28;20584;-60
2023/05/02 04:23:01;;;;;;;0.50;0.50;;;17.80;63.70;;;18.01;47.60;94919.75;5053641;28;20231;-60
2023/05/02 04:25:29;;;;;;;0.40;0.40;;;17.80;64.70;;;18.02;47.22;94925.91;5055316;28;20187;-58
2023/05/02 04:28:00;;;;;;;0.50;0.50;;;17.80;63.80;;;18.04;47.71;94923.78;5054272;28;20195;-60
2023/05/02 04:30:28;;;;;;;0.50;0.50;;;17.80;63.80;;;18.04;47.77;94929.09;5057829;28;20203;-61
2023/05/02 04:33:01;;;;;;;0.50;0.50;;;17.80;63.80;;;18.04;47.89;94927.25;5042127;28;20183;-59
2023/05/02 04:35:32;;;;;;;0.50;0.50;;;17.80;63.80;;;18.03;47.81;94930.16;5057855;28;20712;-59
2023/05/02 04:37:59;;;;;;;0.50;0.50;;;17.80;63.80;;;18.02;47.49;94923.25;5057692;28;20662;-60
2023/05/02 04:40:27;;;;;;;0.60;0.60;;;17.80;63.80;;;18.03;47.75;94941.56;5057640;28;20210;-58
2023/05/02 04:43:00;;;;;;;0.43;0.43;;;17.80;63.80;;;18.01;47.58;94941.00;5057770;28;20187;-60
2023/05/02 04:45:35;;;;;;;0.45;0.45;;;17.80;63.70;;;18.02;47.53;94947.91;5057695;28;20191;-59
2023/05/02 04:48:06;;;;;;;0.40;0.40;;;17.80;63.80;;;18.03;47.42;94949.53;5041971;28;20268;-59
2023/05/02 04:50:33;;;;;;;0.43;0.43;;;17.80;63.80;;;18.03;47.90;94952.19;5057447;28;20210;-60
2023/05/02 04:53:06;;;;;;;0.57;0.57;;;17.80;63.90;;;18.04;47.35;94956.47;5058452;28;20716;-57
2023/05/02 04:55:36;;;;;;;0.50;0.50;;;17.80;64.00;;;18.05;47.98;94957.25;5057798;28;20199;-60
2023/05/02 04:58:03;;;;;;;0.40;0.40;;;17.80;64.00;;;18.05;47.61;94957.25;5058292;28;20253;-60
2023/05/02 05:00:31;;;;;;;0.50;0.50;;;17.80;64.00;;;18.07;47.84;94965.78;5057245;28;20593;-61
2023/05/02 05:03:01;;;;;;;0.50;0.50;;;17.90;64.10;;;18.08;47.53;94970.06;5057878;28;20199;-60
2023/05/02 05:05:29;;;;;;;0.40;0.40;;;17.90;64.20;;;18.08;47.86;94970.06;5057288;28;20195;-59
2023/05/02 05:07:56;;;;;;;0.50;0.50;;;17.90;64.20;;;18.09;47.75;94974.34;5058193;28;20219;-59
2023/05/02 05:10:25;;;;;;;0.40;0.40;;;17.90;64.20;;;18.08;48.30;94978.81;5057090;28;20199;-58
2023/05/02 05:12:52;;;;;;;0.40;0.40;;;17.90;64.20;;;18.09;48.27;94969.03;5058085;28;20520;-61
2023/05/02 05:15:22;;;;;;;0.50;0.50;;;17.90;64.20;;;18.12;48.32;94975.69;5057361;28;20204;-60
2023/05/02 05:17:54;;;;;;;0.40;0.40;;;17.90;64.20;;;18.12;48.00;94983.66;5057022;28;20310;-61
2023/05/02 05:20:22;;;;;;;0.50;0.50;;;17.90;64.30;;;18.13;48.22;94988.72;5056988;28;20676;-59
2023/05/02 05:22:52;;;;;;;0.40;0.40;;;18.00;64.30;;;18.13;47.79;94979.97;5056904;28;20235;-60
2023/05/02 05:25:21;;;;;;;0.50;0.50;;;17.90;64.20;;;18.13;48.16;94986.06;5056924;28;20281;-60
2023/05/02 05:27:51;;;;;;;0.47;0.47;;;17.90;64.20;;;18.15;47.81;94991.13;5056849;28;20291;-60
2023/05/02 05:30:19;;;;;;;0.40;0.40;;;17.90;64.20;;;18.15;47.77;94984.00;5056690;28;20294;-61
2023/05/02 05:32:47;;;;;;;0.50;0.50;;;18.00;64.30;;;18.16;47.86;94992.75;5073474;28;20195;-61
2023/05/02 05:35:14;;;;;;;0.40;0.40;;;17.90;64.30;;;18.16;48.38;94992.75;5057964;28;20183;-60
2023/05/02 05:37:42;;;;;;;0.50;0.50;;;18.00;64.30;;;18.17;47.88;94995.16;5073490;28;20215;-60
2023/05/02 05:40:12;;;;;;;0.43;0.43;;;17.90;64.20;;;18.17;48.27;94986.41;5057444;28;20233;-60
2023/05/02 05:42:42;;;;;;;0.50;0.50;;;18.00;64.40;;;18.17;48.05;94992.50;5056613;28;20199;-61
2023/05/02 05:45:18;;;;;;;0.40;0.40;;;18.00;64.30;;;18.16;47.72;94982.97;5056635;28;20282;-58
2023/05/02 05:47:45;;;;;;;0.50;0.50;;;18.00;64.40;;;18.18;48.24;94993.34;5057697;28;20630;-60
2023/05/02 05:50:13;;;;;;;0.50;0.50;;;18.00;64.30;;;18.17;47.76;94989.84;5057259;28;20199;-61
2023/05/02 05:52:40;;;;;;;0.40;0.40;;;18.00;64.30;;;18.17;48.34;94992.50;5057485;28;20242;-59
2023/05/02 05:55:08;;;;;;;0.40;0.40;;;18.00;64.30;;;18.17;47.69;95000.47;5056391;28;20282;-61
2023/05/02 05:57:35;;;;;;;0.50;0.50;;;18.00;64.30;;;18.17;48.05;94999.69;5056542;28;20230;-60
2023/05/02 06:00:04;;;;;;;0.60;0.60;;;18.00;64.30;;;18.19;48.22;95002.91;5056277;28;20195;-61
2023/05/02 06:02:41;;;;;;;0.40;0.40;;;18.00;64.30;;;18.17;47.89;95000.47;5057056;28;20269;-60
2023/05/02 06:05:15;;;;;;;0.40;0.40;;;18.00;64.40;;;18.18;48.29;95004.75;5056183;28;20634;-60
2023/05/02 06:07:42;;;;;;;0.52;0.52;;;18.00;64.30;;;18.19;47.83;95001.06;5056123;28;20265;-61
2023/05/02 06:10:10;;;;;;;0.40;0.40;;;18.00;64.40;;;18.19;48.18;95005.56;5057029;28;20551;-60
2023/05/02 06:12:40;;;;;;;0.50;0.50;;;18.00;64.40;;;18.16;47.80;95009.50;5055928;28;20203;-60
2023/05/02 06:15:08;;;;;;;0.50;0.50;;;18.10;64.40;;;18.17;47.95;95015.59;5056070;28;20215;-59
2023/05/02 06:17:36;;;;;;;0.50;0.50;;;18.00;64.40;;;18.17;47.99;95018.25;5055880;28;20314;-60
2023/05/02 06:20:05;;;;;;;0.50;0.50;;;18.00;64.40;;;18.17;48.37;95029.69;5056844;28;20282;-59
2023/05/02 06:22:32;;;;;;;0.50;0.50;;;18.00;64.30;;;18.18;47.84;95025.19;5056519;28;20227;-60
2023/05/02 06:24:59;;;;;;;0.50;0.50;;;18.10;64.40;;;18.18;48.06;95028.63;5055774;28;20199;-61
2023/05/02 06:27:27;;;;;;;0.50;0.50;;;18.10;64.50;;;18.19;47.95;95027.59;5056171;28;20580;-60
2023/05/02 06:29:54;;;;;;;0.50;0.50;;;18.00;64.40;;;18.18;48.27;95033.94;5056633;28;20550;-61
2023/05/02 06:32:21;;;;;;;0.40;0.40;;;18.00;64.40;;;18.19;48.46;95032.91;5056734;28;20260;-61
2023/05/02 06:34:48;;;;;;;0.50;0.50;;;18.00;64.50;;;18.20;48.04;95023.09;5056023;28;20599;-60
2023/05/02 06:37:15;;;;;;;0.43;0.43;;;18.00;64.60;;;18.19;48.13;95030.25;5057003;28;20658;-59
2023/05/02 06:39:42;;;;;;;0.60;0.60;;;18.00;64.50;;;18.19;48.25;95029.47;5056472;28;20202;-61
2023/05/02 06:42:09;;;;;;;0.45;0.45;;;18.10;64.60;;;18.19;48.25;95021.50;5056439;28;20187;-60
2023/05/02 06:44:36;;;;;;;0.50;0.50;;;18.00;64.60;;;18.21;48.14;95027.34;5055419;28;20196;-61
2023/05/02 06:47:06;;;;;;;0.40;0.40;;;18.00;64.60;;;18.21;48.70;95030.84;5055519;28;20219;-61
2023/05/02 06:49:33;;;;;;;0.40;0.40;;;18.10;64.60;;;18.21;48.25;95038.78;5056318;28;20547;-59
2023/05/02 06:52:00;;;;;;;0.50;0.50;;;18.00;64.60;;;18.23;48.46;95028.72;5055039;28;20195;-60
2023/05/02 06:54:27;;;;;;;0.40;0.40;;;18.10;64.70;;;18.24;48.35;95035.66;5055269;28;20188;-59
2023/05/02 06:56:54;;;;;;;0.52;0.52;;;18.10;64.70;;;18.24;48.86;95033.00;5056074;28;20196;-61
2023/05/02 06:59:21;;;;;;;0.50;0.50;;;18.10;64.70;;;18.27;48.27;95044.19;5056346;28;20207;-59
2023/05/02 07:01:48;;;;;;;0.50;0.50;;;18.10;64.70;;;18.26;48.72;95038.09;5056507;28;20191;-61
2023/05/02 07:04:16;;;;;;;0.50;0.50;;;18.10;64.70;;;18.27;48.52;95042.34;5055236;28;20196;-60
2023/05/02 07:06:43;;;;;;;0.50;0.50;;;18.10;64.70;;;18.28;48.17;95037.84;5071629;28;20249;-61
2023/05/02 07:09:10;;;;;;;0.47;0.47;;;18.10;64.70;;;18.27;48.84;95050.31;5055932;28;20206;-60
2023/05/02 07:11:37;;;;;;;0.50;0.50;;;18.10;64.60;;;18.28;48.62;95049.25;5054897;28;20196;-61
2023/05/02 07:14:04;;;;;;;0.45;0.45;;;18.20;64.80;;;18.30;48.84;95044.53;5055847;28;20195;-61
2023/05/02 07:16:32;;;;;;;0.60;0.60;;;18.10;64.60;;;18.32;48.78;95049.59;5054921;28;20579;-61
2023/05/02 07:19:00;;;;;;;0.45;0.45;;;18.20;64.80;;;18.32;48.69;95050.41;5055937;28;20298;-61
2023/05/02 07:21:27;;;;;;;0.50;0.50;;;18.20;64.80;;;18.33;48.62;95052.00;5055629;28;20188;-61
2023/05/02 07:23:56;;;;;;;0.40;0.40;;;18.20;64.80;;;18.35;48.36;95047.28;5055636;28;20172;-61
2023/05/02 07:26:24;;;;;;;0.50;0.50;;;18.20;64.80;;;18.36;48.35;95054.19;5055060;28;20516;-59
2023/05/02 07:28:51;;;;;;;0.50;0.50;;;18.20;64.80;;;18.36;48.77;95062.16;5055524;28;20623;-59
2023/05/02 07:31:18;;;;;;;0.40;0.40;;;18.20;64.80;;;18.38;48.86;95059.25;5055489;28;20253;-59
2023/05/02 07:33:45;;;;;;;0.50;0.50;;;18.20;64.70;;;18.38;48.86;95062.75;5055715;28;20529;-60
2023/05/02 07:36:12;;;;;;;0.45;0.45;;;18.20;64.70;;;18.39;48.37;95060.88;5054591;28;20199;-60
2023/05/02 07:38:39;;;;;;;0.40;0.40;;;18.20;64.70;;;18.40;48.82;95060.63;5071006;28;20207;-60
2023/05/02 07:41:06;;;;;;;0.43;0.43;;;18.20;64.70;;;18.41;48.95;95064.13;5055464;28;20196;-59
2023/05/02 07:43:33;;;;;;;0.47;0.47;;;18.30;64.80;;;18.44;48.78;95065.50;5055337;28;20255;-60
2023/05/02 07:46:04;;;;;;;0.50;0.50;;;18.30;64.80;;;18.44;48.20;95073.47;5054293;28;20625;-60
2023/05/02 07:48:32;;;;;;;0.50;0.50;;;18.30;64.80;;;18.45;48.73;95072.41;5037948;28;20204;-61
2023/05/02 07:51:07;;;;;;;0.50;0.50;;;18.30;64.70;;;18.46;48.54;95076.69;5055081;28;20583;-61
2023/05/02 07:53:34;;;;;;;0.50;0.50;;;18.30;64.70;;;18.46;48.46;95080.13;5055146;28;20199;-61
2023/05/02 07:56:06;;;;;;;0.60;0.60;;;18.30;64.70;;;18.48;48.60;95083.38;5055662;28;20485;-59
2023/05/02 07:58:36;;;;;;;0.50;0.50;;;18.30;64.70;;;18.48;48.57;95075.41;5070777;28;20286;-59
2023/05/02 08:01:04;;;;;;;0.50;0.50;;;18.30;64.70;;;18.51;48.77;95084.75;5055339;28;20183;-60
2023/05/02 08:03:31;;;;;;;0.40;0.40;;;18.30;64.70;;;18.53;48.33;95080.81;5070392;28;20187;-59
2023/05/02 08:06:00;;;;;;;0.63;0.63;;;18.30;64.70;;;18.51;48.48;95072.25;5054156;28;20184;-60
2023/05/02 08:08:28;;;;;;;0.50;0.50;;;18.40;64.70;;;18.54;48.50;95082.44;5054318;28;20249;-61
2023/05/02 08:10:55;;;;;;;0.50;0.50;;;18.40;64.60;;;18.59;48.02;95088.88;5054904;28;20219;-61
2023/05/02 08:13:22;;;;;;;0.40;0.40;;;18.40;64.60;;;18.59;48.48;95076.41;5053831;28;20276;-61
2023/05/02 08:15:49;;;;;;;0.45;0.45;;;18.40;64.60;;;18.60;48.14;95077.19;5054915;28;20196;-61
2023/05/02 08:18:16;;;;;;;0.38;0.38;;;18.40;64.60;;;18.62;48.57;95086.53;5053806;28;20662;-60
2023/05/02 08:20:43;;;;;;;0.45;0.45;;;18.40;64.60;;;18.64;48.62;95088.94;5054834;28;20207;-59
2023/05/02 08:23:10;;;;;;;0.50;0.50;;;18.40;64.60;;;18.65;48.46;95095.88;5054597;28;20234;-60
2023/05/02 08:25:39;;;;;;;0.40;0.40;;;18.40;64.60;;;18.67;48.49;95088.50;5055034;28;20238;-59
2023/05/02 08:28:06;;;;;;;0.40;0.40;;;18.40;65.50;;;18.67;48.35;95093.81;5055060;28;20203;-61
2023/05/02 08:30:33;;;;;;;0.30;0.30;;;18.50;64.70;;;18.67;48.20;95091.94;5054043;28;20256;-57
2023/05/02 08:33:00;;;;;;;0.30;0.30;;;18.50;64.60;;;18.68;47.97;95100.72;5055000;28;20188;-60
2023/05/02 08:35:29;;;;;;;0.43;0.43;;;18.50;64.50;;;18.68;48.40;95098.88;5054136;28;20203;-61
2023/05/02 08:37:56;;;;;;;0.50;0.50;;;18.50;64.60;;;18.70;48.26;95099.44;5055183;28;20211;-60
2023/05/02 08:40:24;;;;;;;0.30;0.30;;;18.50;64.50;;;18.73;48.33;95109.59;5054603;28;20634;-60
2023/05/02 08:43:09;;;;;;;0.45;0.45;;;18.50;64.50;;;18.73;48.49;95100.81;5053811;28;20632;-60
2023/05/02 08:45:44;;;;;;;0.40;0.40;;;18.50;64.50;;;18.74;48.40;95110.41;5054577;28;20199;-59
2023/05/02 08:48:13;;;;;;;0.50;0.50;;;18.50;64.50;;;18.75;48.17;95109.38;5037288;28;20194;-60
2023/05/02 08:50:44;;;;;;;0.50;0.50;;;18.50;64.40;;;18.77;48.19;95109.13;5037587;28;20540;-61
2023/05/02 08:53:13;;;;;;;0.40;0.40;;;18.60;64.50;;;18.77;48.21;95107.25;5054776;28;20275;-61
2023/05/02 08:55:41;;;;;;;0.50;0.50;;;18.60;64.50;;;18.78;48.15;95100.91;5054692;28;20631;-60
2023/05/02 08:58:10;;;;;;;0.40;0.40;;;18.60;64.60;;;18.81;48.10;95099.63;5054431;28;20273;-60
2023/05/02 09:00:41;;;;;;;0.50;0.50;;;18.60;64.50;;;18.82;47.92;95111.84;5053620;28;20568;-61
2023/05/02 09:03:25;;;;;;;0.50;0.50;;;18.60;64.40;;;18.83;47.73;95110.81;5054331;28;20196;-61
2023/05/02 09:05:58;;;;;;;0.60;0.60;;;18.60;64.20;;;18.83;47.70;95116.94;5055023;28;20192;-61
2023/05/02 09:08:25;;;;;;;0.45;0.45;;;18.60;64.30;;;18.84;47.98;95113.22;5054990;28;20222;-59
2023/05/02 09:10:53;;;;;;;0.50;0.50;;;18.60;64.20;;;18.87;48.04;95122.56;5054625;28;20200;-61
2023/05/02 09:13:37;;;;;;;0.50;0.50;;;18.70;64.30;;;18.87;47.60;95117.25;5053615;28;20588;-60
2023/05/02 09:16:13;;;;;;;0.50;0.50;;;18.70;64.10;;;18.89;47.58;95123.16;5056346;28;20184;-60
2023/05/02 09:18:46;;;;;;;0.50;0.50;;;18.70;64.20;;;18.90;47.90;95129.28;5058323;28;20225;-61
2023/05/02 09:21:19;;;;;;;0.57;0.57;;;18.70;64.20;;;18.85;47.99;95124.69;5057139;28;20529;-60
2023/05/02 09:23:56;;;;;;;0.50;0.50;;;18.70;64.00;;;18.87;47.51;95131.38;5058082;28;20206;-59
2023/05/02 09:26:26;;;;;;;0.50;0.50;;;18.70;64.10;;;18.93;47.44;95132.31;5058197;28;20180;-60
2023/05/02 09:29:02;;;;;;;0.40;0.40;;;18.70;64.20;;;18.95;47.63;95145.34;5057016;28;20267;-60
2023/05/02 09:31:37;;;;;;;0.40;0.40;;;18.70;64.10;;;18.96;47.33;95139.00;5058149;28;20197;-60
2023/05/02 09:34:13;;;;;;;0.45;0.45;;;18.70;64.00;;;18.96;47.97;95131.03;5056876;28;20531;-61
2023/05/02 09:36:46;;;;;;;0.50;0.50;;;18.70;64.10;;;18.98;47.30;95142.19;5057450;28;20207;-61
2023/05/02 09:39:15;;;;;;;0.40;0.40;;;18.70;64.00;;;18.99;47.59;95147.31;5057911;28;20218;-61
2023/05/02 09:41:46;;;;;;;0.50;0.50;;;18.80;64.10;;;18.99;47.55;95146.47;5056717;28;20198;-56
2023/05/02 09:44:19;;;;;;;0.50;0.50;;;18.70;64.00;;;19.00;47.82;95148.88;5057458;28;20172;-60
2023/05/02 09:46:52;;;;;;;0.40;0.40;;;18.80;64.10;;;18.99;47.50;95152.63;5057259;28;20184;-59
2023/05/02 09:49:39;;;;;;;0.50;0.50;;;18.80;64.00;;;18.99;47.48;95149.97;5057516;28;20183;-59
2023/05/02 09:52:14;;;;;;;0.50;0.50;;;18.80;64.00;;;19.02;47.62;95157.44;5057021;28;20184;-60
2023/05/02 09:54:41;;;;;;;0.40;0.40;;;18.80;63.90;;;19.00;47.34;95148.88;5057399;28;20626;-60
2023/05/02 09:57:09;;;;;;;0.50;0.50;;;18.80;63.90;;;19.05;47.54;95156.16;5057306;28;20238;-61
2023/05/02 09:59:38;;;;;;;0.50;0.50;;;18.80;64.00;;;19.08;47.38;95168.97;5056862;28;20596;-61
2023/05/02 10:02:08;;;;;;;0.50;0.50;;;18.80;64.00;;;19.10;47.48;95163.41;5057073;28;20202;-59
2023/05/02 10:04:35;;;;;;;0.50;0.50;;;18.80;64.10;;;19.11;47.44;95159.72;5057180;28;20226;-60
2023/05/02 10:07:05;;;;;;;0.50;0.50;;;18.90;64.10;;;19.11;47.33;95163.16;5056543;28;20538;-59
2023/05/02 10:09:36;;;;;;;0.50;0.50;;;18.80;64.00;;;19.13;47.87;95168.28;5056319;28;20203;-59
2023/05/02 10:12:03;;;;;;;0.50;0.50;;;18.80;64.10;;;19.15;47.33;95164.31;5039817;28;20566;-61
2023/05/02 10:14:35;;;;;;;0.50;0.50;;;18.90;64.20;;;19.16;47.37;95163.28;5057146;28;20211;-60
2023/05/02 10:17:13;;;;;;;0.50;0.50;;;18.90;64.20;;;19.17;47.28;95166.72;5039536;28;20604;-60
2023/05/02 10:20:06;;;;;;;0.50;0.50;;;18.90;64.10;;;19.18;47.67;95171.81;5056301;28;20215;-60
2023/05/02 10:22:35;;;;;;;0.50;0.50;;;18.90;64.00;;;19.20;47.25;95169.72;5056983;28;20259;-61
2023/05/02 10:25:03;;;;;;;0.40;0.40;;;18.90;64.10;;;19.23;47.50;95172.97;5056820;28;20200;-59
2023/05/02 10:27:31;;;;;;;0.40;0.40;;;18.90;64.10;;;19.24;47.62;95169.22;5056266;28;20254;-60
2023/05/02 10:30:00;;;;;;;0.43;0.43;;;18.90;64.10;;;19.25;47.73;95170.84;5056999;28;20202;-60
2023/05/02 10:32:28;;;;;;;0.50;0.50;;;19.00;64.10;;;19.25;47.17;95176.97;5056551;28;20689;-61
2023/05/02 10:35:03;;;;;;;0.47;0.47;;;19.00;64.00;;;19.29;47.58;95169.34;5056634;28;20227;-61
2023/05/02 10:37:35;;;;;;;0.50;0.50;;;19.00;64.10;;;19.29;47.70;95169.34;5057417;28;20508;-61